Time,TemperatureF,DewpointF,PressureIn,WindDirection,WindDirectionDegrees,WindSpeedMPH,WindSpeedGustMPH,Humidity,HourlyPrecipIn,Conditions,Clouds,dailyrainin,SolarRadiationWatts/m^2,SoftwareType,DateUTC
2013-02-12 00:11:00,31.0,23.0,-100.00,WNW,285,12.0,26.0,73,0.00,,,0.00,1.000000,,2013-02-12 05:11:00,
2013-02-12 00:21:00,31.0,23.0,-100.00,WNW,285,12.0,26.0,73,0.00,,,0.00,1.000000,,2013-02-12 05:21:00,
2013-02-12 00:32:00,31.0,23.0,-100.00,WNW,285,12.0,26.0,73,0.00,,,0.00,1.000000,,2013-02-12 05:32:00,
2013-02-12 00:42:00,31.0,23.0,-100.00,WNW,285,12.0,26.0,73,0.00,,,0.00,1.000000,,2013-02-12 05:42:00,
2013-02-12 01:12:00,29.0,19.0,-100.00,WNW,290,17.0,29.0,66,0.00,,,0.00,1.000000,,2013-02-12 06:12:00,
2013-02-12 01:22:00,29.0,19.0,-100.00,WNW,290,17.0,29.0,66,0.00,,,0.00,1.000000,,2013-02-12 06:22:00,
2013-02-12 01:32:00,29.0,19.0,-100.00,WNW,290,17.0,29.0,66,0.00,,,0.00,1.000000,,2013-02-12 06:32:00,
2013-02-12 01:42:00,29.0,19.0,-100.00,WNW,290,17.0,29.0,66,0.00,,,0.00,1.000000,,2013-02-12 06:42:00,
2013-02-12 02:12:00,29.0,20.0,-100.00,WNW,297,13.0,25.0,69,0.00,,,0.00,1.000000,,2013-02-12 07:12:00,
2013-02-12 02:21:00,29.0,20.0,-100.00,WNW,297,13.0,25.0,69,0.00,,,0.00,1.000000,,2013-02-12 07:21:00,
2013-02-12 02:32:00,29.0,20.0,-100.00,WNW,297,13.0,25.0,69,0.00,,,0.00,1.000000,,2013-02-12 07:32:00,
2013-02-12 02:42:00,29.0,20.0,-100.00,WNW,297,13.0,25.0,69,0.00,,,0.00,1.000000,,2013-02-12 07:42:00,
2013-02-12 03:11:00,28.0,20.0,-100.00,WNW,297,10.0,25.0,70,0.00,,,0.00,1.000000,,2013-02-12 08:11:00,
2013-02-12 03:22:00,28.0,20.0,-100.00,WNW,297,10.0,25.0,70,0.00,,,0.00,1.000000,,2013-02-12 08:22:00,
2013-02-12 03:32:00,28.0,20.0,-100.00,WNW,297,10.0,25.0,70,0.00,,,0.00,1.000000,,2013-02-12 08:32:00,
2013-02-12 03:42:00,28.0,20.0,-100.00,WNW,297,10.0,25.0,70,0.00,,,0.00,1.000000,,2013-02-12 08:42:00,
2013-02-12 04:11:00,27.0,18.0,-100.00,WNW,294,8.0,17.0,69,0.00,,,0.00,1.000000,,2013-02-12 09:11:00,
2013-02-12 04:22:00,27.0,18.0,-100.00,WNW,294,8.0,17.0,69,0.00,,,0.00,1.000000,,2013-02-12 09:22:00,
2013-02-12 04:32:00,27.0,18.0,-100.00,WNW,294,8.0,17.0,69,0.00,,,0.00,1.000000,,2013-02-12 09:32:00,
2013-02-12 04:42:00,27.0,18.0,-100.00,WNW,294,8.0,17.0,69,0.00,,,0.00,1.000000,,2013-02-12 09:42:00,
2013-02-12 05:11:00,26.0,18.0,-100.00,WNW,302,7.0,17.0,71,0.00,,,0.00,1.000000,,2013-02-12 10:11:00,
2013-02-12 05:22:00,26.0,18.0,-100.00,WNW,302,7.0,17.0,71,0.00,,,0.00,1.000000,,2013-02-12 10:22:00,
2013-02-12 05:32:00,26.0,18.0,-100.00,WNW,302,7.0,17.0,71,0.00,,,0.00,1.000000,,2013-02-12 10:32:00,
2013-02-12 05:43:00,26.0,18.0,-100.00,WNW,302,7.0,17.0,71,0.00,,,0.00,1.000000,,2013-02-12 10:43:00,
2013-02-12 06:11:00,24.0,15.0,-100.00,WNW,288,7.0,17.0,68,0.00,,,0.00,0.000000,,2013-02-12 11:11:00,
2013-02-12 06:22:00,24.0,15.0,-100.00,WNW,288,7.0,17.0,68,0.00,,,0.00,0.000000,,2013-02-12 11:22:00,
2013-02-12 06:32:00,24.0,15.0,-100.00,WNW,288,7.0,17.0,68,0.00,,,0.00,0.000000,,2013-02-12 11:32:00,
2013-02-12 06:42:00,24.0,15.0,-100.00,WNW,288,7.0,17.0,68,0.00,,,0.00,0.000000,,2013-02-12 11:42:00,
2013-02-12 07:11:00,24.0,16.0,-100.00,West,278,8.0,15.0,72,0.00,,,0.00,1.000000,,2013-02-12 12:11:00,
2013-02-12 07:22:00,24.0,16.0,-100.00,West,278,8.0,15.0,72,0.00,,,0.00,1.000000,,2013-02-12 12:22:00,
2013-02-12 07:32:00,24.0,16.0,-100.00,West,278,8.0,15.0,72,0.00,,,0.00,1.000000,,2013-02-12 12:32:00,
2013-02-12 07:42:00,24.0,16.0,-100.00,West,278,8.0,15.0,72,0.00,,,0.00,1.000000,,2013-02-12 12:42:00,
2013-02-12 08:11:00,25.0,19.0,-100.00,West,272,9.0,17.0,78,0.00,,,0.00,1.000000,,2013-02-12 13:11:00,
2013-02-12 08:22:00,25.0,19.0,-100.00,West,272,9.0,17.0,78,0.00,,,0.00,1.000000,,2013-02-12 13:22:00,
2013-02-12 08:32:00,25.0,19.0,-100.00,West,272,9.0,17.0,78,0.00,,,0.00,1.000000,,2013-02-12 13:32:00,
2013-02-12 08:42:00,25.0,19.0,-100.00,West,272,9.0,17.0,78,0.00,,,0.00,1.000000,,2013-02-12 13:42:00,
2013-02-12 09:12:00,26.0,20.0,-100.00,West,269,11.0,19.0,77,0.00,,,0.00,23.000000,,2013-02-12 14:12:00,
2013-02-12 09:22:00,26.0,20.0,-100.00,West,269,11.0,19.0,77,0.00,,,0.00,23.000000,,2013-02-12 14:22:00,
2013-02-12 09:32:00,26.0,20.0,-100.00,West,269,11.0,19.0,77,0.00,,,0.00,23.000000,,2013-02-12 14:32:00,
2013-02-12 09:42:00,26.0,20.0,-100.00,West,269,11.0,19.0,77,0.00,,,0.00,23.000000,,2013-02-12 14:42:00,
2013-02-12 10:11:00,27.0,20.0,-100.00,West,272,11.0,17.0,73,0.00,,,0.00,80.000000,,2013-02-12 15:11:00,
2013-02-12 10:21:00,27.0,20.0,-100.00,West,272,11.0,17.0,73,0.00,,,0.00,80.000000,,2013-02-12 15:21:00,
2013-02-12 10:32:00,27.0,20.0,-100.00,West,272,11.0,17.0,73,0.00,,,0.00,80.000000,,2013-02-12 15:32:00,
2013-02-12 10:42:00,27.0,20.0,-100.00,West,272,11.0,17.0,73,0.00,,,0.00,80.000000,,2013-02-12 15:42:00,
2013-02-12 11:11:00,28.0,20.0,-100.00,West,276,10.0,20.0,72,0.00,,,0.00,118.000000,,2013-02-12 16:11:00,
2013-02-12 11:22:00,28.0,20.0,-100.00,West,276,10.0,20.0,72,0.00,,,0.00,118.000000,,2013-02-12 16:22:00,
2013-02-12 11:32:00,28.0,20.0,-100.00,West,276,10.0,20.0,72,0.00,,,0.00,118.000000,,2013-02-12 16:32:00,
2013-02-12 11:42:00,28.0,20.0,-100.00,West,276,10.0,20.0,72,0.00,,,0.00,118.000000,,2013-02-12 16:42:00,
2013-02-12 12:12:00,28.0,20.0,-100.00,West,278,11.0,18.0,71,0.00,,,0.00,131.000000,,2013-02-12 17:12:00,
2013-02-12 12:21:00,28.0,20.0,-100.00,West,278,11.0,18.0,71,0.00,,,0.00,131.000000,,2013-02-12 17:21:00,
2013-02-12 12:32:00,28.0,20.0,-100.00,West,278,11.0,18.0,71,0.00,,,0.00,131.000000,,2013-02-12 17:32:00,
2013-02-12 12:42:00,28.0,20.0,-100.00,West,278,11.0,18.0,71,0.00,,,0.00,131.000000,,2013-02-12 17:42:00,
2013-02-12 13:12:00,28.0,20.0,-100.00,West,279,13.0,21.0,70,0.00,,,0.00,143.000000,,2013-02-12 18:12:00,
2013-02-12 13:23:00,28.0,20.0,-100.00,West,279,13.0,21.0,70,0.00,,,0.00,143.000000,,2013-02-12 18:23:00,
2013-02-12 13:32:00,28.0,20.0,-100.00,West,279,13.0,21.0,70,0.00,,,0.00,143.000000,,2013-02-12 18:32:00,
2013-02-12 13:42:00,28.0,20.0,-100.00,West,279,13.0,21.0,70,0.00,,,0.00,143.000000,,2013-02-12 18:42:00,
2013-02-12 14:11:00,29.0,19.0,-100.00,West,279,13.0,20.0,66,0.00,,,0.00,150.000000,,2013-02-12 19:11:00,
2013-02-12 14:21:00,29.0,19.0,-100.00,West,279,13.0,20.0,66,0.00,,,0.00,150.000000,,2013-02-12 19:21:00,
2013-02-12 14:32:00,29.0,19.0,-100.00,West,279,13.0,20.0,66,0.00,,,0.00,150.000000,,2013-02-12 19:32:00,
2013-02-12 14:42:00,29.0,19.0,-100.00,West,279,13.0,20.0,66,0.00,,,0.00,150.000000,,2013-02-12 19:42:00,
2013-02-12 15:11:00,28.0,17.0,-100.00,West,273,11.0,19.0,64,0.00,,,0.00,126.000000,,2013-02-12 20:11:00,
2013-02-12 15:22:00,28.0,17.0,-100.00,West,273,11.0,19.0,64,0.00,,,0.00,126.000000,,2013-02-12 20:22:00,
2013-02-12 15:32:00,28.0,17.0,-100.00,West,273,11.0,19.0,64,0.00,,,0.00,126.000000,,2013-02-12 20:32:00,
2013-02-12 15:41:00,28.0,17.0,-100.00,West,273,11.0,19.0,64,0.00,,,0.00,126.000000,,2013-02-12 20:41:00,
2013-02-12 16:11:00,29.0,18.0,-100.00,WNW,282,8.0,19.0,62,0.00,,,0.00,118.000000,,2013-02-12 21:11:00,
2013-02-12 16:21:00,29.0,18.0,-100.00,WNW,282,8.0,19.0,62,0.00,,,0.00,118.000000,,2013-02-12 21:21:00,
2013-02-12 16:32:00,29.0,18.0,-100.00,WNW,282,8.0,19.0,62,0.00,,,0.00,118.000000,,2013-02-12 21:32:00,
2013-02-12 16:42:00,29.0,18.0,-100.00,WNW,282,8.0,19.0,62,0.00,,,0.00,118.000000,,2013-02-12 21:42:00,
2013-02-12 17:12:00,29.0,18.0,-100.00,West,277,7.0,15.0,62,0.00,,,0.00,75.000000,,2013-02-12 22:12:00,
2013-02-12 17:22:00,29.0,18.0,-100.00,West,277,7.0,15.0,62,0.00,,,0.00,75.000000,,2013-02-12 22:22:00,
2013-02-12 17:32:00,29.0,18.0,-100.00,West,277,7.0,15.0,62,0.00,,,0.00,75.000000,,2013-02-12 22:32:00,
2013-02-12 17:42:00,29.0,18.0,-100.00,West,277,7.0,15.0,62,0.00,,,0.00,75.000000,,2013-02-12 22:42:00,
2013-02-12 18:11:00,29.0,19.0,-100.00,WSW,253,9.0,16.0,65,0.00,,,0.00,19.000000,,2013-02-12 23:11:00,
2013-02-12 18:21:00,29.0,19.0,-100.00,WSW,253,9.0,16.0,65,0.00,,,0.00,19.000000,,2013-02-12 23:21:00,
2013-02-12 18:32:00,29.0,19.0,-100.00,WSW,253,9.0,16.0,65,0.00,,,0.00,19.000000,,2013-02-12 23:32:00,
2013-02-12 18:42:00,29.0,19.0,-100.00,WSW,253,9.0,16.0,65,0.00,,,0.00,19.000000,,2013-02-12 23:42:00,
2013-02-12 19:11:00,28.0,19.0,-100.00,WSW,240,10.0,17.0,69,0.00,,,0.00,1.000000,,2013-02-13 00:11:00,
2013-02-12 19:22:00,28.0,19.0,-100.00,WSW,240,10.0,17.0,69,0.00,,,0.00,1.000000,,2013-02-13 00:22:00,
2013-02-12 19:32:00,28.0,19.0,-100.00,WSW,240,10.0,17.0,69,0.00,,,0.00,1.000000,,2013-02-13 00:32:00,
2013-02-12 19:42:00,28.0,19.0,-100.00,WSW,240,10.0,17.0,69,0.00,,,0.00,1.000000,,2013-02-13 00:42:00,
2013-02-12 20:42:00,27.0,18.0,-100.00,WSW,254,10.0,16.0,67,0.00,,,0.00,1.000000,,2013-02-13 01:42:00,
2013-02-12 21:11:00,27.0,18.0,-100.00,West,269,9.0,18.0,69,0.00,,,0.00,1.000000,,2013-02-13 02:11:00,
2013-02-12 21:22:00,27.0,18.0,-100.00,West,269,9.0,18.0,69,0.00,,,0.00,1.000000,,2013-02-13 02:22:00,
2013-02-12 21:32:00,27.0,18.0,-100.00,West,269,9.0,18.0,69,0.00,,,0.00,1.000000,,2013-02-13 02:32:00,
2013-02-12 21:42:00,27.0,18.0,-100.00,West,269,9.0,18.0,69,0.00,,,0.00,1.000000,,2013-02-13 02:42:00,
2013-02-12 22:12:00,26.0,18.0,-100.00,West,262,9.0,15.0,70,0.00,,,0.00,1.000000,,2013-02-13 03:12:00,
2013-02-12 22:21:00,26.0,18.0,-100.00,West,262,9.0,15.0,70,0.00,,,0.00,1.000000,,2013-02-13 03:21:00,
2013-02-12 22:32:00,26.0,18.0,-100.00,West,262,9.0,15.0,70,0.00,,,0.00,1.000000,,2013-02-13 03:32:00,
2013-02-12 22:42:00,26.0,18.0,-100.00,West,262,9.0,15.0,70,0.00,,,0.00,1.000000,,2013-02-13 03:42:00,
2013-02-12 23:11:00,24.0,15.0,-100.00,West,280,10.0,16.0,69,0.00,,,0.00,1.000000,,2013-02-13 04:11:00,
2013-02-12 23:21:00,24.0,15.0,-100.00,West,280,10.0,16.0,69,0.00,,,0.00,1.000000,,2013-02-13 04:21:00,
2013-02-12 23:32:00,24.0,15.0,-100.00,West,280,10.0,16.0,69,0.00,,,0.00,1.000000,,2013-02-13 04:32:00,
2013-02-12 23:42:00,24.0,15.0,-100.00,West,280,10.0,16.0,69,0.00,,,0.00,1.000000,,2013-02-13 04:42:00,